Onalaska, TX (77360)

6:25 AM CST on December 21, 2014 (GMT -0600)
Texas Landing | Change Station
CLOSE
Current Station
Personal Weather Station
Location: Livingston, TX
Elevation: 167 ft
Nearby Weather Stations

Elev 167 ft 30.71 °N, 95.03 °W | Updated 7 seconds ago

Overcast
Overcast
46.0 °F
Feels Like 46 °F
N
0.0
Wind Variable Wind from NNE
Gusts 0.0 mph

Today
High -- | Low -- °F
--% Chance of Precip.
Yesterday
High -- | Low -- °F
Precip. -- in
7:14 AM 5:23 PM
Waning Crescent, 0% visible
Pressure 30.12 in
Visibility 4.0 miles
Clouds Overcast 1200 ft
Windchill 46 °F
Dew Point 44 °F
Humidity 94%
Rainfall 0.00 in
Snow Depth Not available.
UV 0.0 out of 12
Pollen 6.70 out of 12
Air Quality Not available.
Flu Activity Not available.
METAR KUTS 211153Z AUTO 00000KT 4SM BR OVC012 08/08 A3012 RMK AO2 SLP200 T00830078 10100 20083 55008

More Conditions Fewer Conditions

Pressure 30.12 in
Visibility 4.0 miles
Clouds Overcast 1200 ft
Windchill 46 °F
Dew Point 44 °F
Humidity 94%
Rainfall 0.00 in
Snow Depth Not available.
UV 0.0 out of 12
Pollen 6.70 out of 12
Air Quality Not available.
Flu Activity Not available.
METAR KUTS 211153Z AUTO 00000KT 4SM BR OVC012 08/08 A3012 RMK AO2 SLP200 T00830078 10100 20083 55008

More Conditions Fewer Conditions

10-Day Weather Forecast

Almanac

Astronomy

Dec. 21, 2014 Rise Set
Actual Time
Civil Twilight
Nautical Twilight
Astronomical Twilight
Moon
Length of Visible Light
Length of Day
Tomorrow will be .
, % of the Moon is Illuminated

Today's Extremes

State Highs State Lows

Community

WunderPhotos

Upload Photos

1,779,372 photos uploaded!

WunderBlogs® & News

Nearby

Air Quality

  Air Quality AQ Index Pollutant
Not available.

Snow Depth

Station Depth Elevation

Earthquake Activity

City Distance Mag. Time & Date
Minimum magnitude displayed is 2.5.

Coastal Water Temperatures

Place Temperature

Nearby Weather Stations